createdAt,value
2018-11-14T00:00:26.095Z,4.85
2018-11-14T00:02:53.552Z,4.83
2018-11-14T00:05:20.900Z,4.22
2018-11-14T00:07:48.244Z,4.95
2018-11-14T00:10:15.566Z,5.37
2018-11-14T00:12:42.936Z,5.00
2018-11-14T00:15:12.717Z,4.55
2018-11-14T00:17:40.409Z,4.30
2018-11-14T00:20:09.000Z,4.65
2018-11-14T00:22:36.320Z,4.28
2018-11-14T00:25:03.932Z,4.72
2018-11-14T00:27:31.255Z,4.33
2018-11-14T00:29:58.828Z,4.87
2018-11-14T00:32:26.540Z,5.05
2018-11-14T00:34:53.919Z,5.80
2018-11-14T00:37:21.172Z,5.25
2018-11-14T00:39:48.488Z,6.65
2018-11-14T00:42:15.800Z,6.65
2018-11-14T00:44:43.152Z,6.60
2018-11-14T00:47:10.459Z,7.10
2018-11-14T00:49:37.768Z,6.00
2018-11-14T01:06:33.179Z,6.65
2018-11-14T01:09:00.539Z,7.58
2018-11-14T01:11:27.869Z,7.03
2018-11-14T01:13:55.193Z,8.18
2018-11-14T01:16:22.505Z,8.28
2018-11-14T01:18:49.957Z,7.75
2018-11-14T01:21:17.283Z,7.12
2018-11-14T01:23:44.604Z,7.72
2018-11-14T01:26:11.932Z,6.60
2018-11-14T01:28:39.248Z,6.92
2018-11-14T01:31:06.596Z,7.92
2018-11-14T01:33:33.916Z,8.28
2018-11-14T01:36:01.306Z,8.48
2018-11-14T01:38:28.655Z,7.80
2018-11-14T01:40:56.030Z,7.05
2018-11-14T01:43:23.340Z,4.87
2018-11-14T01:45:50.681Z,5.95
2018-11-14T01:48:18.046Z,5.12
2018-11-14T01:50:45.364Z,6.35
2018-11-14T01:53:12.676Z,5.95
2018-11-14T01:55:39.972Z,4.95
2018-11-14T01:58:07.280Z,6.15
2018-11-14T02:00:34.588Z,6.03
2018-11-14T02:03:01.909Z,6.37
2018-11-14T02:05:29.244Z,6.15
2018-11-14T02:07:56.540Z,6.10
2018-11-14T02:10:23.859Z,6.20
2018-11-14T02:12:51.196Z,6.72
2018-11-14T02:15:20.759Z,6.15
2018-11-14T02:17:48.094Z,6.30
2018-11-14T02:20:15.431Z,4.45
2018-11-14T02:22:43.428Z,3.95
2018-11-14T02:25:11.506Z,5.47
2018-11-14T02:27:38.868Z,4.65
2018-11-14T02:30:09.505Z,3.92
2018-11-14T02:32:36.842Z,4.10
2018-11-14T02:35:04.834Z,4.60
2018-11-14T02:37:32.256Z,4.62
2018-11-14T02:39:59.521Z,4.17
2018-11-14T02:42:26.843Z,4.08
2018-11-14T02:44:54.158Z,3.60
2018-11-14T02:47:21.463Z,3.40
2018-11-14T02:49:48.773Z,3.40
2018-11-14T02:52:16.081Z,3.58
2018-11-14T02:54:43.413Z,3.85
2018-11-14T02:57:10.709Z,3.90
2018-11-14T02:59:38.024Z,4.30
2018-11-14T03:02:05.655Z,4.10
2018-11-14T03:04:32.964Z,3.83
2018-11-14T03:07:00.292Z,3.90
2018-11-14T03:09:27.616Z,4.83
2018-11-14T03:11:54.950Z,4.47
2018-11-14T03:14:22.264Z,5.15
2018-11-14T03:16:49.592Z,5.05
2018-11-14T03:19:16.945Z,5.00
2018-11-14T03:21:44.244Z,4.90
2018-11-14T03:24:11.578Z,5.50
2018-11-14T03:26:38.901Z,5.50
2018-11-14T03:29:06.308Z,6.15
2018-11-14T03:31:33.661Z,6.37
2018-11-14T03:34:00.996Z,6.58
2018-11-14T03:36:28.364Z,6.17
2018-11-14T03:38:55.692Z,7.00
2018-11-14T03:41:23.029Z,5.67
2018-11-14T03:43:50.392Z,6.25
2018-11-14T03:46:17.753Z,7.05
2018-11-14T03:48:45.356Z,10.55
2018-11-14T03:51:12.694Z,11.80
2018-11-14T03:53:40.046Z,8.13
2018-11-14T03:56:07.841Z,8.50
2018-11-14T03:58:35.301Z,7.58
2018-11-14T04:01:02.592Z,11.08
2018-11-14T04:03:29.941Z,6.55
2018-11-14T04:05:57.321Z,7.40
2018-11-14T04:08:24.649Z,6.45
2018-11-14T04:10:51.982Z,6.03
2018-11-14T04:13:19.316Z,6.10
2018-11-14T04:15:46.662Z,8.73
2018-11-14T04:18:15.000Z,9.78
2018-11-14T04:20:42.361Z,9.03
2018-11-14T04:23:09.690Z,8.85
2018-11-14T04:25:37.016Z,7.62
2018-11-14T04:28:04.484Z,7.65
2018-11-14T04:30:31.817Z,7.70
2018-11-14T04:32:59.189Z,7.55
2018-11-14T04:35:26.526Z,7.05
2018-11-14T04:37:53.874Z,6.00
2018-11-14T04:40:22.377Z,5.72
2018-11-14T04:42:49.728Z,7.35
2018-11-14T04:45:18.713Z,7.08
2018-11-14T04:47:46.071Z,9.63
2018-11-14T04:50:16.361Z,8.23
2018-11-14T04:52:44.581Z,8.73
2018-11-14T04:55:13.157Z,10.60
2018-11-14T04:57:41.228Z,10.15
2018-11-14T05:00:10.033Z,9.90
2018-11-14T05:02:37.459Z,7.92
2018-11-14T05:05:06.708Z,7.53
2018-11-14T05:07:34.065Z,9.05
2018-11-14T05:10:01.414Z,8.83
2018-11-14T05:12:28.755Z,10.55
2018-11-14T05:14:56.121Z,10.95
2018-11-14T05:17:23.449Z,12.68
2018-11-14T05:19:50.792Z,13.65
2018-11-14T05:22:18.264Z,11.73
2018-11-14T05:24:45.896Z,13.98
2018-11-14T05:27:13.164Z,13.43
2018-11-14T05:29:40.446Z,13.72
2018-11-14T05:32:07.810Z,15.60
2018-11-14T05:34:35.496Z,15.28
2018-11-14T05:37:02.865Z,14.78
2018-11-14T05:39:30.997Z,16.73
2018-11-14T05:41:58.337Z,15.48
2018-11-14T05:44:26.660Z,15.58
2018-11-14T05:46:54.001Z,15.72
2018-11-14T05:49:22.775Z,14.38
2018-11-14T05:51:50.097Z,16.20
2018-11-14T05:54:17.405Z,15.65
2018-11-14T05:56:44.678Z,16.70
2018-11-14T05:59:11.963Z,15.38
2018-11-14T06:01:39.311Z,17.95
2018-11-14T06:04:07.088Z,18.52
2018-11-14T06:06:34.417Z,16.82
2018-11-14T06:09:01.810Z,17.60
2018-11-14T06:11:29.137Z,16.67
2018-11-14T06:13:56.457Z,16.85
2018-11-14T06:16:23.809Z,17.12
2018-11-14T06:18:51.153Z,17.62
2018-11-14T06:21:18.813Z,17.80
2018-11-14T06:23:46.196Z,17.82
2018-11-14T06:26:14.501Z,15.75
2018-11-14T06:28:41.841Z,18.15
2018-11-14T06:31:09.163Z,18.57
2018-11-14T06:33:36.448Z,20.15
2018-11-14T06:36:04.137Z,20.20
2018-11-14T06:38:31.503Z,20.95
2018-11-14T06:40:58.832Z,21.90
2018-11-14T06:43:26.148Z,20.10
2018-11-14T06:45:53.484Z,20.25
2018-11-14T06:48:20.801Z,21.75
2018-11-14T06:50:48.144Z,21.10
2018-11-14T06:53:15.465Z,21.40
2018-11-14T06:55:42.885Z,20.72
2018-11-14T06:58:10.221Z,21.60
2018-11-14T07:00:37.605Z,21.93
2018-11-14T07:03:06.238Z,19.50
2018-11-14T07:05:33.733Z,19.27
2018-11-14T07:08:01.007Z,21.52
2018-11-14T07:10:30.586Z,23.80
2018-11-14T07:13:04.701Z,21.15
2018-11-14T07:15:32.816Z,21.10
2018-11-14T07:18:00.260Z,22.90
2018-11-14T07:20:28.903Z,19.80
2018-11-14T07:22:56.238Z,20.75
2018-11-14T07:25:23.567Z,22.17
2018-11-14T07:27:50.887Z,24.95
2018-11-14T07:30:20.781Z,23.22
2018-11-14T07:32:49.400Z,22.05
2018-11-14T07:35:17.336Z,23.87
2018-11-14T07:37:48.241Z,23.38
2018-11-14T07:40:15.569Z,23.52
2018-11-14T07:42:42.904Z,23.25
2018-11-14T07:45:13.781Z,22.17
2018-11-14T07:47:41.376Z,22.32
2018-11-14T07:50:11.526Z,24.65
2018-11-14T07:52:38.828Z,20.80
2018-11-14T07:55:07.266Z,21.10
2018-11-14T07:57:34.596Z,19.98
2018-11-14T08:00:01.941Z,20.48
2018-11-14T08:02:29.294Z,20.02
2018-11-14T08:04:56.633Z,18.45
2018-11-14T08:07:24.372Z,19.77
2018-11-14T08:09:51.712Z,17.37
2018-11-14T08:12:19.109Z,18.87
2018-11-14T08:14:46.471Z,20.12
2018-11-14T08:17:13.831Z,17.67
2018-11-14T08:19:41.171Z,21.05
2018-11-14T08:22:08.585Z,18.37
2018-11-14T08:24:35.904Z,17.48
2018-11-14T08:27:03.234Z,18.65
2018-11-14T08:29:30.575Z,15.13
2018-11-14T08:31:57.948Z,14.78
2018-11-14T08:34:25.298Z,15.18
2018-11-14T08:36:52.639Z,12.73
2018-11-14T08:39:20.481Z,12.93
2018-11-14T08:41:47.787Z,13.48
2018-11-14T08:44:15.129Z,11.93
2018-11-14T08:46:42.461Z,13.37
2018-11-14T08:49:09.788Z,10.80
2018-11-14T08:51:37.524Z,11.43
2018-11-14T08:54:05.007Z,10.33
2018-11-14T08:56:32.385Z,10.20
2018-11-14T08:58:59.712Z,9.90
2018-11-14T09:01:27.050Z,9.60
2018-11-14T09:03:54.397Z,10.10
2018-11-14T09:06:21.789Z,10.83
2018-11-14T09:08:49.061Z,9.43
2018-11-14T09:11:16.530Z,10.25
2018-11-14T09:13:43.775Z,10.03
2018-11-14T09:16:11.127Z,9.93
2018-11-14T09:18:38.479Z,9.47
2018-11-14T09:21:05.809Z,9.63
2018-11-14T09:23:33.140Z,10.30
2018-11-14T09:26:00.494Z,10.70
2018-11-14T09:28:27.817Z,11.03
2018-11-14T09:30:55.160Z,10.40
2018-11-14T09:33:22.505Z,10.90
2018-11-14T09:35:49.828Z,11.90
2018-11-14T09:38:17.142Z,11.40
2018-11-14T09:40:44.540Z,12.83
2018-11-14T09:43:11.820Z,12.50
2018-11-14T09:45:39.157Z,13.00
2018-11-14T09:48:06.497Z,12.03
2018-11-14T09:50:33.796Z,13.40
2018-11-14T09:53:02.440Z,14.50
2018-11-14T09:55:29.788Z,14.30
2018-11-14T09:57:57.237Z,12.90
2018-11-14T10:00:25.915Z,13.73
2018-11-14T10:02:54.890Z,14.77
2018-11-14T10:05:23.097Z,14.97
2018-11-14T10:07:50.480Z,13.60
2018-11-14T10:10:19.133Z,12.63
2018-11-14T10:12:46.454Z,13.73
2018-11-14T10:15:15.081Z,14.63
2018-11-14T10:17:43.232Z,13.10
2018-11-14T10:20:13.044Z,13.67
2018-11-14T10:22:40.912Z,14.20
2018-11-14T10:25:08.693Z,13.47
2018-11-14T10:27:36.748Z,12.90
2018-11-14T10:30:05.166Z,14.03
2018-11-14T10:32:32.504Z,11.90
2018-11-14T10:34:59.834Z,13.80
2018-11-14T10:37:27.168Z,12.90
2018-11-14T10:39:54.508Z,12.70
2018-11-14T10:42:21.936Z,12.40
2018-11-14T10:44:49.265Z,12.30
2018-11-14T10:47:16.591Z,12.97
2018-11-14T10:49:44.953Z,12.10
2018-11-14T10:52:12.276Z,13.93
2018-11-14T10:54:39.633Z,13.10
2018-11-14T10:57:06.952Z,14.40
2018-11-14T10:59:34.291Z,14.10
2018-11-14T11:02:07.353Z,14.33
2018-11-14T11:04:40.266Z,13.50
2018-11-14T11:07:13.207Z,13.73
2018-11-14T11:09:47.346Z,14.43
2018-11-14T11:12:20.378Z,13.90
2018-11-14T11:14:53.395Z,14.07
2018-11-14T11:17:26.051Z,13.83
2018-11-14T11:19:53.356Z,13.50
2018-11-14T11:22:20.638Z,14.00
2018-11-14T11:24:48.099Z,12.77
2018-11-14T11:27:15.421Z,12.23
2018-11-14T11:29:42.785Z,12.40
2018-11-14T11:32:10.176Z,11.27
2018-11-14T11:34:37.449Z,12.27
2018-11-14T11:37:05.120Z,11.23
2018-11-14T11:39:32.461Z,11.83
2018-11-14T11:41:59.804Z,10.50
2018-11-14T11:44:27.211Z,10.63
2018-11-14T11:46:54.488Z,9.00
2018-11-14T11:49:21.792Z,9.33
2018-11-14T11:51:49.124Z,10.10
2018-11-14T11:54:16.450Z,9.77
2018-11-14T11:56:43.780Z,11.60
2018-11-14T11:59:11.076Z,11.40
2018-11-14T12:01:38.407Z,13.03
2018-11-14T12:04:05.767Z,12.77
2018-11-14T12:06:33.213Z,12.40
2018-11-14T12:09:00.460Z,14.10
2018-11-14T12:11:27.765Z,14.27
2018-11-14T12:13:55.174Z,15.30
2018-11-14T12:16:22.476Z,13.70
2018-11-14T12:18:49.801Z,14.07
2018-11-14T12:21:17.138Z,12.03
2018-11-14T12:23:44.536Z,12.50
2018-11-14T12:26:11.825Z,13.70
2018-11-14T12:28:39.161Z,13.17
2018-11-14T12:31:06.580Z,14.07
2018-11-14T12:33:33.837Z,14.07
2018-11-14T12:36:01.144Z,14.30
2018-11-14T12:38:28.426Z,13.17
2018-11-14T12:40:55.735Z,14.20
2018-11-14T12:43:23.038Z,12.77
2018-11-14T12:45:50.344Z,13.13
2018-11-14T12:48:17.660Z,12.93
2018-11-14T12:50:44.977Z,12.50
2018-11-14T12:53:12.291Z,13.90
2018-11-14T12:55:39.588Z,12.90
2018-11-14T12:58:06.881Z,13.03
2018-11-14T13:00:34.188Z,12.80
2018-11-14T13:03:01.482Z,14.20
2018-11-14T13:05:28.844Z,15.17
2018-11-14T13:07:56.165Z,14.95
2018-11-14T13:10:23.492Z,16.17
2018-11-14T13:12:50.829Z,13.57
2018-11-14T13:15:19.084Z,15.90
2018-11-14T13:17:46.450Z,14.50
2018-11-14T13:22:54.880Z,14.10
2018-11-14T13:25:22.166Z,14.27
2018-11-14T13:27:49.423Z,15.13
2018-11-14T13:30:18.351Z,15.32
2018-11-14T13:32:46.512Z,14.73
2018-11-14T13:35:15.037Z,16.00
2018-11-14T13:37:42.975Z,16.25
2018-11-14T13:40:10.523Z,15.28
2018-11-14T13:42:37.879Z,15.40
2018-11-14T13:45:06.825Z,15.88
2018-11-14T13:47:34.573Z,17.00
2018-11-14T13:50:02.113Z,16.25
2018-11-14T13:52:29.389Z,16.37
2018-11-14T13:54:56.698Z,16.63
2018-11-14T13:57:24.026Z,14.87
2018-11-14T13:59:51.340Z,14.35
2018-11-14T14:02:18.693Z,14.28
2018-11-14T14:04:46.000Z,13.63
2018-11-14T14:07:13.337Z,13.20
2018-11-14T14:09:40.669Z,15.23
2018-11-14T14:12:08.013Z,13.65
2018-11-14T14:14:35.349Z,13.95
2018-11-14T14:17:02.701Z,14.50
2018-11-14T14:19:30.061Z,12.90
2018-11-14T14:21:57.462Z,12.63
2018-11-14T14:24:24.745Z,12.37
2018-11-14T14:26:52.105Z,15.30
2018-11-14T14:29:19.434Z,13.48
2018-11-14T14:31:46.765Z,12.47
2018-11-14T14:34:14.107Z,15.32
2018-11-14T14:36:41.441Z,13.50
2018-11-14T14:39:10.260Z,14.40
2018-11-14T14:41:37.600Z,15.08
2018-11-14T14:44:05.177Z,14.50
2018-11-14T14:46:32.525Z,13.55
2018-11-14T14:48:59.931Z,14.80
2018-11-14T14:51:27.201Z,13.75
2018-11-14T14:53:54.521Z,15.60
2018-11-14T14:56:21.937Z,13.75
2018-11-14T14:58:49.384Z,15.53
2018-11-14T15:01:19.275Z,16.50
2018-11-14T15:03:46.650Z,14.80
2018-11-14T15:06:14.261Z,15.38
2018-11-14T15:08:41.600Z,17.05
2018-11-14T15:11:08.929Z,15.53
2018-11-14T15:13:36.262Z,14.58
2018-11-14T15:16:03.885Z,15.23
2018-11-14T15:18:31.529Z,14.98
2018-11-14T15:20:59.044Z,15.95
2018-11-14T15:23:26.380Z,16.10
2018-11-14T15:25:53.696Z,14.30
2018-11-14T15:28:21.003Z,16.95
2018-11-14T15:30:48.308Z,16.32
2018-11-14T15:33:15.641Z,18.12
2018-11-14T15:35:42.962Z,19.17
2018-11-14T15:38:10.283Z,18.10
2018-11-14T15:40:37.589Z,17.87
2018-11-14T15:43:05.106Z,19.37
2018-11-14T15:45:32.432Z,19.35
2018-11-14T15:47:59.744Z,17.12
2018-11-14T15:50:28.356Z,19.50
2018-11-14T15:52:56.436Z,21.12
2018-11-14T15:55:23.882Z,20.08
2018-11-14T15:57:51.433Z,19.77
2018-11-14T16:00:26.816Z,20.62
2018-11-14T16:02:54.368Z,22.55
2018-11-14T16:05:22.793Z,19.52
2018-11-14T16:07:51.317Z,20.45
2018-11-14T16:10:19.849Z,21.80
2018-11-14T16:12:47.181Z,19.60
2018-11-14T16:15:16.041Z,22.30
2018-11-14T16:17:43.381Z,23.50
2018-11-14T16:20:14.956Z,21.95
2018-11-14T16:22:42.277Z,20.02
2018-11-14T16:25:11.897Z,22.25
2018-11-14T16:27:39.890Z,22.73
2018-11-14T16:30:10.625Z,22.60
2018-11-14T16:32:37.941Z,24.70
2018-11-14T16:35:05.317Z,27.95
2018-11-14T16:37:32.687Z,25.17
2018-11-14T16:40:00.041Z,25.05
2018-11-14T16:42:27.353Z,25.20
2018-11-14T16:44:54.713Z,22.48
2018-11-14T16:47:22.032Z,25.48
2018-11-14T16:49:49.415Z,24.10
2018-11-14T16:52:17.841Z,22.55
2018-11-14T16:54:45.170Z,23.83
2018-11-14T16:57:12.496Z,23.60
2018-11-14T16:59:39.832Z,22.45
2018-11-14T17:02:07.157Z,22.80
2018-11-14T17:04:34.490Z,23.75
2018-11-14T17:07:01.842Z,25.35
2018-11-14T17:09:29.128Z,24.43
2018-11-14T17:11:56.424Z,25.75
2018-11-14T17:14:23.810Z,25.50
2018-11-14T17:16:51.073Z,23.05
2018-11-14T17:19:18.411Z,24.45
2018-11-14T17:21:45.741Z,24.23
2018-11-14T17:24:13.053Z,24.67
2018-11-14T17:26:40.385Z,22.85
2018-11-14T17:29:07.701Z,28.80
2018-11-14T17:31:35.037Z,28.98
2018-11-14T17:34:02.393Z,21.70
2018-11-14T17:36:29.764Z,21.90
2018-11-14T17:38:57.080Z,22.42
2018-11-14T17:41:24.496Z,21.30
2018-11-14T17:43:51.739Z,22.98
2018-11-14T17:46:19.081Z,23.00
2018-11-14T17:48:46.744Z,21.45
2018-11-14T17:51:14.078Z,23.32
2018-11-14T17:53:41.406Z,22.48
2018-11-14T17:56:08.769Z,21.77
2018-11-14T17:58:36.064Z,23.62
2018-11-14T18:01:03.487Z,21.45
2018-11-14T18:03:30.772Z,23.62
2018-11-14T18:05:58.072Z,23.32
2018-11-14T18:08:25.400Z,23.30
2018-11-14T18:10:52.704Z,23.35
2018-11-14T18:13:20.020Z,22.30
2018-11-14T18:15:47.324Z,22.58
2018-11-14T18:18:14.652Z,22.82
2018-11-14T18:20:41.977Z,38.17
2018-11-14T18:23:09.320Z,25.68
2018-11-14T18:25:36.624Z,25.17
2018-11-14T18:28:04.197Z,22.25
2018-11-14T18:30:31.595Z,21.95
2018-11-14T18:33:00.026Z,24.70
2018-11-14T18:35:27.676Z,23.90
2018-11-14T18:37:55.868Z,23.87
2018-11-14T18:40:24.538Z,21.70
2018-11-14T18:42:51.849Z,20.50
2018-11-14T18:45:21.552Z,21.55
2018-11-14T18:47:49.163Z,20.92
2018-11-14T18:50:17.229Z,21.35
2018-11-14T18:52:45.329Z,21.80
2018-11-14T18:55:13.997Z,20.68
2018-11-14T18:57:41.683Z,23.02
2018-11-14T19:00:11.675Z,21.75
2018-11-14T19:02:39.010Z,20.82
2018-11-14T19:05:07.083Z,22.55
2018-11-14T19:07:36.037Z,21.95
2018-11-14T19:10:03.865Z,23.47
2018-11-14T19:12:31.213Z,20.75
2018-11-14T19:14:58.532Z,18.52
2018-11-14T19:17:25.863Z,20.17
2018-11-14T19:19:54.185Z,18.52
2018-11-14T19:22:21.487Z,21.73
2018-11-14T19:24:49.029Z,20.30
2018-11-14T19:27:16.572Z,21.95
2018-11-14T19:29:43.964Z,22.70
2018-11-14T19:32:11.374Z,21.70
2018-11-14T19:34:38.632Z,21.90
2018-11-14T19:37:05.944Z,19.50
2018-11-14T19:39:33.292Z,23.62
2018-11-14T19:42:00.621Z,21.70
2018-11-14T19:44:27.958Z,23.52
2018-11-14T19:46:55.277Z,21.15
2018-11-14T19:49:22.641Z,28.57
2018-11-14T19:51:50.072Z,22.75
2018-11-14T19:54:17.398Z,23.52
2018-11-14T19:56:44.914Z,22.67
2018-11-14T19:59:12.225Z,28.98
2018-11-14T20:01:39.557Z,24.92
2018-11-14T20:04:06.856Z,25.92
2018-11-14T20:06:34.204Z,24.02
2018-11-14T20:09:01.536Z,26.68
2018-11-14T20:11:28.885Z,26.25
2018-11-14T20:13:56.196Z,23.62
2018-11-14T20:16:23.512Z,23.55
2018-11-14T20:18:50.817Z,25.00
2018-11-14T20:21:18.153Z,34.85
2018-11-14T20:23:45.537Z,34.00
2018-11-14T20:26:12.831Z,27.35
2018-11-14T20:28:40.125Z,35.48
2018-11-14T20:31:07.429Z,24.63
2018-11-14T20:33:34.728Z,27.22
2018-11-14T20:36:02.201Z,26.17
2018-11-14T20:38:29.536Z,27.13
2018-11-14T20:40:56.880Z,27.62
2018-11-14T20:43:24.189Z,26.40
2018-11-14T20:45:51.528Z,25.12
2018-11-14T20:48:18.874Z,24.43
2018-11-14T20:50:46.266Z,30.20
2018-11-14T20:53:13.596Z,22.67
2018-11-14T20:55:40.939Z,20.35
2018-11-14T20:58:08.211Z,22.77
2018-11-14T21:00:36.490Z,27.00
2018-11-14T21:03:04.505Z,25.82
2018-11-14T21:05:32.139Z,21.25
2018-11-14T21:07:59.585Z,21.07
2018-11-14T21:10:28.149Z,20.60
2018-11-14T21:12:55.705Z,22.35
2018-11-14T21:15:24.520Z,20.92
2018-11-14T21:17:52.574Z,21.60
2018-11-14T21:20:19.900Z,21.62
2018-11-14T21:22:47.267Z,20.40
2018-11-14T21:25:15.769Z,19.05
2018-11-14T21:27:44.140Z,19.57
2018-11-14T21:30:13.039Z,18.23
2018-11-14T21:32:40.893Z,16.85
2018-11-14T21:35:14.417Z,19.02
2018-11-14T21:37:42.363Z,18.12
2018-11-14T21:40:10.350Z,18.98
2018-11-14T21:42:38.097Z,20.95
2018-11-14T21:45:07.205Z,20.48
2018-11-14T21:47:40.189Z,21.70
2018-11-14T21:50:07.523Z,20.08
2018-11-14T21:52:34.863Z,17.62
2018-11-14T21:55:02.256Z,17.20
2018-11-14T21:57:29.568Z,15.95
2018-11-14T21:59:56.981Z,17.70
2018-11-14T22:02:24.221Z,16.67
2018-11-14T22:04:51.565Z,17.12
2018-11-14T22:07:18.913Z,16.85
2018-11-14T22:09:46.220Z,16.87
2018-11-14T22:12:13.546Z,17.40
2018-11-14T22:14:40.859Z,17.65
2018-11-14T22:17:08.178Z,17.80
2018-11-14T22:19:35.577Z,17.82
2018-11-14T22:22:02.875Z,19.40
2018-11-14T22:24:30.171Z,18.73
2018-11-14T22:26:57.485Z,17.30
2018-11-14T22:29:24.790Z,15.65
2018-11-14T22:31:52.113Z,15.98
2018-11-14T22:34:19.433Z,17.23
2018-11-14T22:36:46.744Z,17.75
2018-11-14T22:39:14.098Z,17.80
2018-11-14T22:41:41.436Z,19.23
2018-11-14T22:44:08.746Z,16.97
2018-11-14T22:46:36.073Z,18.23
2018-11-14T22:49:03.432Z,14.18
2018-11-14T22:51:30.754Z,16.12
2018-11-14T22:53:58.072Z,18.02
2018-11-14T22:56:25.381Z,19.70
2018-11-14T22:58:52.709Z,18.05
2018-11-14T23:01:20.040Z,19.15
2018-11-14T23:03:47.353Z,23.10
2018-11-14T23:06:14.729Z,17.02
2018-11-14T23:08:42.320Z,17.12
2018-11-14T23:11:09.650Z,19.37
2018-11-14T23:13:37.036Z,18.60
2018-11-14T23:16:04.877Z,16.95
2018-11-14T23:18:32.206Z,15.50
2018-11-14T23:20:59.624Z,14.78
2018-11-14T23:23:26.938Z,16.10
2018-11-14T23:25:54.253Z,13.68
2018-11-14T23:28:22.577Z,14.00
2018-11-14T23:30:49.877Z,14.53
2018-11-14T23:33:17.207Z,16.73
2018-11-14T23:35:44.506Z,20.27
2018-11-14T23:38:11.852Z,16.37
2018-11-14T23:40:40.176Z,18.98
2018-11-14T23:43:07.476Z,15.83
2018-11-14T23:45:35.790Z,16.45
2018-11-14T23:48:03.125Z,17.40
2018-11-14T23:50:31.517Z,17.02
2018-11-14T23:52:59.895Z,20.95
2018-11-14T23:55:28.085Z,17.12
2018-11-14T23:57:55.631Z,18.62
